sensor_id;sensor_type;location;lat;lon;timestamp;P1;durP1;ratioP1;P2;durP2;ratioP2
44842;SDS011;31884;52.538;13.820;2022-12-29T00:01:45;3.13;;;1.40;;
44842;SDS011;31884;52.538;13.820;2022-12-29T00:04:14;3.13;;;1.42;;
44842;SDS011;31884;52.538;13.820;2022-12-29T00:06:40;2.20;;;1.33;;
44842;SDS011;31884;52.538;13.820;2022-12-29T00:09:06;4.55;;;1.60;;
44842;SDS011;31884;52.538;13.820;2022-12-29T00:11:32;3.17;;;1.40;;
44842;SDS011;31884;52.538;13.820;2022-12-29T00:13:57;4.22;;;1.42;;
44842;SDS011;31884;52.538;13.820;2022-12-29T00:16:42;2.75;;;1.60;;
44842;SDS011;31884;52.538;13.820;2022-12-29T00:19:10;1.85;;;1.27;;
44842;SDS011;31884;52.538;13.820;2022-12-29T00:21:56;3.85;;;1.63;;
44842;SDS011;31884;52.538;13.820;2022-12-29T00:24:41;3.13;;;1.95;;
44842;SDS011;31884;52.538;13.820;2022-12-29T00:27:28;3.88;;;1.73;;
44842;SDS011;31884;52.538;13.820;2022-12-29T00:30:15;2.42;;;1.40;;
44842;SDS011;31884;52.538;13.820;2022-12-29T00:33:10;1.60;;;1.50;;
44842;SDS011;31884;52.538;13.820;2022-12-29T00:39:01;1.67;;;1.50;;
44842;SDS011;31884;52.538;13.820;2022-12-29T00:41:49;2.42;;;1.52;;
44842;SDS011;31884;52.538;13.820;2022-12-29T00:44:33;2.40;;;1.50;;
44842;SDS011;31884;52.538;13.820;2022-12-29T00:46:59;3.00;;;1.77;;
44842;SDS011;31884;52.538;13.820;2022-12-29T00:49:29;1.77;;;1.40;;
44842;SDS011;31884;52.538;13.820;2022-12-29T00:51:55;2.60;;;1.48;;
44842;SDS011;31884;52.538;13.820;2022-12-29T00:54:22;4.30;;;1.50;;
44842;SDS011;31884;52.538;13.820;2022-12-29T00:56:48;3.58;;;1.80;;
44842;SDS011;31884;52.538;13.820;2022-12-29T00:59:15;1.77;;;1.48;;
44842;SDS011;31884;52.538;13.820;2022-12-29T01:01:40;2.25;;;1.70;;
44842;SDS011;31884;52.538;13.820;2022-12-29T01:04:06;2.35;;;1.33;;
44842;SDS011;31884;52.538;13.820;2022-12-29T01:06:33;7.32;;;1.45;;
44842;SDS011;31884;52.538;13.820;2022-12-29T01:09:00;1.85;;;1.40;;
44842;SDS011;31884;52.538;13.820;2022-12-29T01:11:44;5.15;;;1.83;;
44842;SDS011;31884;52.538;13.820;2022-12-29T01:14:09;2.55;;;1.30;;
44842;SDS011;31884;52.538;13.820;2022-12-29T01:16:35;1.98;;;1.27;;
44842;SDS011;31884;52.538;13.820;2022-12-29T01:19:01;2.10;;;1.40;;
44842;SDS011;31884;52.538;13.820;2022-12-29T01:21:27;3.63;;;1.30;;
44842;SDS011;31884;52.538;13.820;2022-12-29T01:23:53;3.40;;;1.63;;
44842;SDS011;31884;52.538;13.820;2022-12-29T01:26:18;2.38;;;1.58;;
44842;SDS011;31884;52.538;13.820;2022-12-29T01:28:44;3.05;;;1.67;;
44842;SDS011;31884;52.538;13.820;2022-12-29T01:31:10;3.47;;;1.30;;
44842;SDS011;31884;52.538;13.820;2022-12-29T01:33:37;3.38;;;1.60;;
44842;SDS011;31884;52.538;13.820;2022-12-29T01:36:04;2.58;;;1.20;;
44842;SDS011;31884;52.538;13.820;2022-12-29T01:38:32;4.47;;;1.45;;
44842;SDS011;31884;52.538;13.820;2022-12-29T01:40:58;2.35;;;1.30;;
44842;SDS011;31884;52.538;13.820;2022-12-29T01:43:40;2.25;;;1.40;;
44842;SDS011;31884;52.538;13.820;2022-12-29T01:49:05;1.40;;;0.98;;
44842;SDS011;31884;52.538;13.820;2022-12-29T01:51:44;2.00;;;1.40;;
44842;SDS011;31884;52.538;13.820;2022-12-29T01:54:55;3.40;;;1.20;;
44842;SDS011;31884;52.538;13.820;2022-12-29T01:57:07;3.22;;;1.00;;
44842;SDS011;31884;52.538;13.820;2022-12-29T01:59:38;3.67;;;1.63;;
44842;SDS011;31884;52.538;13.820;2022-12-29T02:02:06;2.08;;;1.20;;
44842;SDS011;31884;52.538;13.820;2022-12-29T02:04:32;1.55;;;1.10;;
44842;SDS011;31884;52.538;13.820;2022-12-29T02:07:01;2.60;;;1.20;;
44842;SDS011;31884;52.538;13.820;2022-12-29T02:09:34;1.67;;;1.35;;
44842;SDS011;31884;52.538;13.820;2022-12-29T02:12:00;1.92;;;1.20;;
44842;SDS011;31884;52.538;13.820;2022-12-29T02:14:26;1.20;;;1.10;;
44842;SDS011;31884;52.538;13.820;2022-12-29T02:17:03;1.77;;;1.00;;
44842;SDS011;31884;52.538;13.820;2022-12-29T02:19:59;1.67;;;1.27;;
44842;SDS011;31884;52.538;13.820;2022-12-29T02:25:30;2.00;;;1.50;;
44842;SDS011;31884;52.538;13.820;2022-12-29T02:37:03;1.00;;;0.82;;
44842;SDS011;31884;52.538;13.820;2022-12-29T02:39:40;3.00;;;1.17;;
44842;SDS011;31884;52.538;13.820;2022-12-29T02:42:13;1.67;;;1.27;;
44842;SDS011;31884;52.538;13.820;2022-12-29T02:45:11;2.90;;;0.90;;
44842;SDS011;31884;52.538;13.820;2022-12-29T02:47:41;3.10;;;1.20;;
44842;SDS011;31884;52.538;13.820;2022-12-29T02:52:59;2.92;;;1.15;;
44842;SDS011;31884;52.538;13.820;2022-12-29T02:55:27;3.58;;;1.55;;
44842;SDS011;31884;52.538;13.820;2022-12-29T03:00:34;1.38;;;1.27;;
44842;SDS011;31884;52.538;13.820;2022-12-29T03:05:48;4.10;;;1.20;;
44842;SDS011;31884;52.538;13.820;2022-12-29T03:11:13;2.47;;;1.35;;
44842;SDS011;31884;52.538;13.820;2022-12-29T03:14:01;2.67;;;1.35;;
44842;SDS011;31884;52.538;13.820;2022-12-29T03:16:47;1.88;;;1.30;;
44842;SDS011;31884;52.538;13.820;2022-12-29T03:19:19;2.08;;;1.40;;
44842;SDS011;31884;52.538;13.820;2022-12-29T03:21:53;5.50;;;1.38;;
44842;SDS011;31884;52.538;13.820;2022-12-29T03:24:41;1.70;;;1.25;;
44842;SDS011;31884;52.538;13.820;2022-12-29T03:27:10;2.05;;;1.23;;
44842;SDS011;31884;52.538;13.820;2022-12-29T03:29:49;1.40;;;1.00;;
44842;SDS011;31884;52.538;13.820;2022-12-29T03:32:22;1.13;;;0.85;;
44842;SDS011;31884;52.538;13.820;2022-12-29T03:34:51;2.08;;;1.10;;
44842;SDS011;31884;52.538;13.820;2022-12-29T03:37:20;1.73;;;1.25;;
44842;SDS011;31884;52.538;13.820;2022-12-29T03:39:48;1.45;;;1.20;;
44842;SDS011;31884;52.538;13.820;2022-12-29T03:42:15;1.30;;;1.20;;
44842;SDS011;31884;52.538;13.820;2022-12-29T03:44:44;2.30;;;1.30;;
44842;SDS011;31884;52.538;13.820;2022-12-29T03:47:11;3.58;;;1.40;;
44842;SDS011;31884;52.538;13.820;2022-12-29T03:49:38;2.35;;;1.20;;
44842;SDS011;31884;52.538;13.820;2022-12-29T03:52:04;3.17;;;1.40;;
44842;SDS011;31884;52.538;13.820;2022-12-29T03:54:30;1.52;;;1.13;;
44842;SDS011;31884;52.538;13.820;2022-12-29T03:56:56;2.42;;;0.93;;
44842;SDS011;31884;52.538;13.820;2022-12-29T03:59:21;3.03;;;1.15;;
44842;SDS011;31884;52.538;13.820;2022-12-29T04:01:47;2.50;;;1.20;;
44842;SDS011;31884;52.538;13.820;2022-12-29T04:04:12;1.88;;;1.20;;
44842;SDS011;31884;52.538;13.820;2022-12-29T04:06:38;1.33;;;1.20;;
44842;SDS011;31884;52.538;13.820;2022-12-29T04:09:03;1.27;;;1.10;;
44842;SDS011;31884;52.538;13.820;2022-12-29T04:11:29;2.30;;;1.58;;
44842;SDS011;31884;52.538;13.820;2022-12-29T04:13:55;2.47;;;1.15;;
44842;SDS011;31884;52.538;13.820;2022-12-29T04:16:20;1.73;;;1.15;;
44842;SDS011;31884;52.538;13.820;2022-12-29T04:18:46;1.23;;;1.00;;
44842;SDS011;31884;52.538;13.820;2022-12-29T04:21:11;1.67;;;1.20;;
44842;SDS011;31884;52.538;13.820;2022-12-29T04:23:37;1.92;;;1.05;;
44842;SDS011;31884;52.538;13.820;2022-12-29T04:26:04;1.30;;;1.00;;
44842;SDS011;31884;52.538;13.820;2022-12-29T04:28:34;3.05;;;1.42;;
44842;SDS011;31884;52.538;13.820;2022-12-29T04:31:00;2.03;;;1.30;;
44842;SDS011;31884;52.538;13.820;2022-12-29T04:33:26;1.40;;;1.10;;
44842;SDS011;31884;52.538;13.820;2022-12-29T04:35:52;1.10;;;1.00;;
44842;SDS011;31884;52.538;13.820;2022-12-29T04:38:19;2.25;;;1.30;;
44842;SDS011;31884;52.538;13.820;2022-12-29T04:40:45;1.65;;;1.17;;
44842;SDS011;31884;52.538;13.820;2022-12-29T04:43:11;2.83;;;1.08;;
44842;SDS011;31884;52.538;13.820;2022-12-29T04:45:38;2.10;;;1.30;;
44842;SDS011;31884;52.538;13.820;2022-12-29T04:48:07;2.65;;;1.27;;
44842;SDS011;31884;52.538;13.820;2022-12-29T04:50:32;3.25;;;1.42;;
44842;SDS011;31884;52.538;13.820;2022-12-29T04:52:58;2.60;;;1.77;;
44842;SDS011;31884;52.538;13.820;2022-12-29T04:55:23;1.75;;;1.02;;
44842;SDS011;31884;52.538;13.820;2022-12-29T04:57:49;1.98;;;1.33;;
44842;SDS011;31884;52.538;13.820;2022-12-29T05:00:14;1.92;;;1.15;;
44842;SDS011;31884;52.538;13.820;2022-12-29T05:02:40;1.25;;;1.05;;
44842;SDS011;31884;52.538;13.820;2022-12-29T05:05:06;1.30;;;1.20;;
44842;SDS011;31884;52.538;13.820;2022-12-29T05:07:31;2.47;;;1.40;;
44842;SDS011;31884;52.538;13.820;2022-12-29T05:09:58;1.60;;;1.17;;
44842;SDS011;31884;52.538;13.820;2022-12-29T05:12:24;1.67;;;1.10;;
44842;SDS011;31884;52.538;13.820;2022-12-29T05:14:49;2.28;;;1.00;;
44842;SDS011;31884;52.538;13.820;2022-12-29T05:17:15;4.72;;;1.17;;
44842;SDS011;31884;52.538;13.820;2022-12-29T05:19:40;3.33;;;1.30;;
44842;SDS011;31884;52.538;13.820;2022-12-29T05:22:06;1.83;;;1.00;;
44842;SDS011;31884;52.538;13.820;2022-12-29T05:24:31;2.53;;;1.23;;
44842;SDS011;31884;52.538;13.820;2022-12-29T05:26:57;1.80;;;1.20;;
44842;SDS011;31884;52.538;13.820;2022-12-29T05:29:22;1.40;;;1.10;;
44842;SDS011;31884;52.538;13.820;2022-12-29T05:31:48;1.13;;;1.02;;
44842;SDS011;31884;52.538;13.820;2022-12-29T05:34:14;2.30;;;1.17;;
44842;SDS011;31884;52.538;13.820;2022-12-29T05:36:40;2.15;;;1.10;;
44842;SDS011;31884;52.538;13.820;2022-12-29T05:39:05;2.45;;;1.42;;
44842;SDS011;31884;52.538;13.820;2022-12-29T05:41:32;3.25;;;1.38;;
44842;SDS011;31884;52.538;13.820;2022-12-29T05:43:58;2.42;;;1.20;;
44842;SDS011;31884;52.538;13.820;2022-12-29T05:46:24;2.05;;;1.20;;
44842;SDS011;31884;52.538;13.820;2022-12-29T05:48:49;2.67;;;1.67;;
44842;SDS011;31884;52.538;13.820;2022-12-29T05:51:14;1.25;;;1.00;;
44842;SDS011;31884;52.538;13.820;2022-12-29T05:53:40;2.88;;;1.30;;
44842;SDS011;31884;52.538;13.820;2022-12-29T05:56:05;1.25;;;1.10;;
44842;SDS011;31884;52.538;13.820;2022-12-29T05:58:31;2.15;;;1.20;;
44842;SDS011;31884;52.538;13.820;2022-12-29T06:00:57;3.53;;;1.70;;
44842;SDS011;31884;52.538;13.820;2022-12-29T06:03:22;1.15;;;1.00;;
44842;SDS011;31884;52.538;13.820;2022-12-29T06:05:47;2.33;;;1.50;;
44842;SDS011;31884;52.538;13.820;2022-12-29T06:08:13;4.18;;;1.33;;
44842;SDS011;31884;52.538;13.820;2022-12-29T06:10:38;1.77;;;1.30;;
44842;SDS011;31884;52.538;13.820;2022-12-29T06:13:04;1.65;;;1.15;;
44842;SDS011;31884;52.538;13.820;2022-12-29T06:15:31;1.83;;;1.20;;
44842;SDS011;31884;52.538;13.820;2022-12-29T06:17:57;5.97;;;1.50;;
44842;SDS011;31884;52.538;13.820;2022-12-29T06:20:22;1.70;;;1.20;;
44842;SDS011;31884;52.538;13.820;2022-12-29T06:22:48;1.48;;;1.25;;
44842;SDS011;31884;52.538;13.820;2022-12-29T06:25:14;1.05;;;0.93;;
44842;SDS011;31884;52.538;13.820;2022-12-29T06:27:40;1.60;;;1.20;;
44842;SDS011;31884;52.538;13.820;2022-12-29T06:30:06;2.83;;;1.52;;
44842;SDS011;31884;52.538;13.820;2022-12-29T06:32:32;1.95;;;1.13;;
44842;SDS011;31884;52.538;13.820;2022-12-29T06:34:58;1.20;;;1.08;;
44842;SDS011;31884;52.538;13.820;2022-12-29T06:37:24;2.67;;;1.13;;
44842;SDS011;31884;52.538;13.820;2022-12-29T06:39:49;3.88;;;1.63;;
44842;SDS011;31884;52.538;13.820;2022-12-29T06:42:15;1.02;;;0.90;;
44842;SDS011;31884;52.538;13.820;2022-12-29T06:44:40;1.52;;;1.00;;
44842;SDS011;31884;52.538;13.820;2022-12-29T06:47:06;1.17;;;1.08;;
44842;SDS011;31884;52.538;13.820;2022-12-29T06:49:31;1.42;;;1.00;;
44842;SDS011;31884;52.538;13.820;2022-12-29T06:51:57;2.05;;;1.10;;
44842;SDS011;31884;52.538;13.820;2022-12-29T06:54:24;1.25;;;0.70;;
44842;SDS011;31884;52.538;13.820;2022-12-29T06:56:50;2.45;;;1.15;;
44842;SDS011;31884;52.538;13.820;2022-12-29T06:59:15;1.33;;;0.98;;
44842;SDS011;31884;52.538;13.820;2022-12-29T07:01:40;1.20;;;1.00;;
44842;SDS011;31884;52.538;13.820;2022-12-29T07:04:06;2.33;;;1.30;;
44842;SDS011;31884;52.538;13.820;2022-12-29T07:06:32;2.38;;;1.30;;
44842;SDS011;31884;52.538;13.820;2022-12-29T07:08:57;1.48;;;1.00;;
44842;SDS011;31884;52.538;13.820;2022-12-29T07:11:23;1.42;;;1.17;;
44842;SDS011;31884;52.538;13.820;2022-12-29T07:13:49;1.45;;;0.90;;
44842;SDS011;31884;52.538;13.820;2022-12-29T07:16:15;1.67;;;1.40;;
44842;SDS011;31884;52.538;13.820;2022-12-29T07:18:40;2.47;;;0.93;;
44842;SDS011;31884;52.538;13.820;2022-12-29T07:21:06;2.70;;;1.05;;
44842;SDS011;31884;52.538;13.820;2022-12-29T07:23:31;3.38;;;1.40;;
44842;SDS011;31884;52.538;13.820;2022-12-29T07:26:00;2.05;;;1.23;;
44842;SDS011;31884;52.538;13.820;2022-12-29T07:28:28;4.03;;;1.60;;
44842;SDS011;31884;52.538;13.820;2022-12-29T07:30:54;1.80;;;1.55;;
44842;SDS011;31884;52.538;13.820;2022-12-29T07:33:19;3.20;;;1.20;;
44842;SDS011;31884;52.538;13.820;2022-12-29T07:35:45;1.13;;;1.00;;
44842;SDS011;31884;52.538;13.820;2022-12-29T07:38:10;1.55;;;1.10;;
44842;SDS011;31884;52.538;13.820;2022-12-29T07:40:36;2.70;;;1.13;;
44842;SDS011;31884;52.538;13.820;2022-12-29T07:43:01;2.47;;;1.20;;
44842;SDS011;31884;52.538;13.820;2022-12-29T07:45:27;1.08;;;0.85;;
44842;SDS011;31884;52.538;13.820;2022-12-29T07:47:52;3.75;;;1.50;;
44842;SDS011;31884;52.538;13.820;2022-12-29T07:50:18;1.25;;;1.15;;
44842;SDS011;31884;52.538;13.820;2022-12-29T07:52:43;1.02;;;0.93;;
44842;SDS011;31884;52.538;13.820;2022-12-29T07:55:09;1.90;;;0.88;;
44842;SDS011;31884;52.538;13.820;2022-12-29T07:57:35;1.75;;;1.05;;
44842;SDS011;31884;52.538;13.820;2022-12-29T08:00:00;1.67;;;1.38;;
44842;SDS011;31884;52.538;13.820;2022-12-29T08:02:28;2.33;;;1.10;;
44842;SDS011;31884;52.538;13.820;2022-12-29T08:04:54;1.48;;;0.88;;
44842;SDS011;31884;52.538;13.820;2022-12-29T08:07:20;1.13;;;0.90;;
44842;SDS011;31884;52.538;13.820;2022-12-29T08:09:45;2.28;;;0.88;;
44842;SDS011;31884;52.538;13.820;2022-12-29T08:12:11;2.28;;;1.25;;
44842;SDS011;31884;52.538;13.820;2022-12-29T08:14:36;1.83;;;1.10;;
44842;SDS011;31884;52.538;13.820;2022-12-29T08:17:02;1.63;;;1.23;;
44842;SDS011;31884;52.538;13.820;2022-12-29T08:19:27;1.52;;;1.10;;
44842;SDS011;31884;52.538;13.820;2022-12-29T08:21:53;1.45;;;1.25;;
44842;SDS011;31884;52.538;13.820;2022-12-29T08:24:18;1.88;;;1.33;;
44842;SDS011;31884;52.538;13.820;2022-12-29T08:26:44;1.42;;;1.10;;
44842;SDS011;31884;52.538;13.820;2022-12-29T08:29:10;3.10;;;1.30;;
44842;SDS011;31884;52.538;13.820;2022-12-29T08:31:35;1.83;;;1.20;;
44842;SDS011;31884;52.538;13.820;2022-12-29T08:34:01;1.58;;;1.17;;
44842;SDS011;31884;52.538;13.820;2022-12-29T08:36:28;2.53;;;1.10;;
44842;SDS011;31884;52.538;13.820;2022-12-29T08:38:55;2.58;;;0.95;;
44842;SDS011;31884;52.538;13.820;2022-12-29T08:41:21;1.20;;;1.10;;
44842;SDS011;31884;52.538;13.820;2022-12-29T08:43:47;1.83;;;1.10;;
44842;SDS011;31884;52.538;13.820;2022-12-29T08:46:13;4.50;;;1.08;;
44842;SDS011;31884;52.538;13.820;2022-12-29T08:48:39;3.75;;;1.30;;
44842;SDS011;31884;52.538;13.820;2022-12-29T08:51:04;2.05;;;1.00;;
44842;SDS011;31884;52.538;13.820;2022-12-29T08:53:30;1.15;;;0.85;;
44842;SDS011;31884;52.538;13.820;2022-12-29T08:55:56;2.33;;;1.00;;
44842;SDS011;31884;52.538;13.820;2022-12-29T08:58:23;1.27;;;1.00;;
44842;SDS011;31884;52.538;13.820;2022-12-29T09:00:51;1.58;;;1.08;;
44842;SDS011;31884;52.538;13.820;2022-12-29T09:03:20;3.35;;;1.40;;
44842;SDS011;31884;52.538;13.820;2022-12-29T09:05:53;3.95;;;1.38;;
44842;SDS011;31884;52.538;13.820;2022-12-29T09:08:19;1.35;;;1.08;;
44842;SDS011;31884;52.538;13.820;2022-12-29T09:10:45;2.72;;;1.10;;
44842;SDS011;31884;52.538;13.820;2022-12-29T09:13:12;1.92;;;1.15;;
44842;SDS011;31884;52.538;13.820;2022-12-29T09:15:38;1.27;;;0.88;;
44842;SDS011;31884;52.538;13.820;2022-12-29T09:18:04;1.73;;;1.00;;
44842;SDS011;31884;52.538;13.820;2022-12-29T09:20:30;1.83;;;1.30;;
44842;SDS011;31884;52.538;13.820;2022-12-29T09:22:55;2.03;;;1.20;;
44842;SDS011;31884;52.538;13.820;2022-12-29T09:25:21;2.55;;;1.10;;
44842;SDS011;31884;52.538;13.820;2022-12-29T09:27:49;1.70;;;1.00;;
44842;SDS011;31884;52.538;13.820;2022-12-29T09:30:17;1.42;;;1.10;;
44842;SDS011;31884;52.538;13.820;2022-12-29T09:32:43;2.55;;;1.58;;
44842;SDS011;31884;52.538;13.820;2022-12-29T09:35:09;2.78;;;1.00;;
44842;SDS011;31884;52.538;13.820;2022-12-29T09:37:35;2.00;;;1.27;;
44842;SDS011;31884;52.538;13.820;2022-12-29T09:40:00;3.40;;;1.20;;
44842;SDS011;31884;52.538;13.820;2022-12-29T09:42:31;1.92;;;0.90;;
44842;SDS011;31884;52.538;13.820;2022-12-29T09:45:14;1.67;;;1.10;;
44842;SDS011;31884;52.538;13.820;2022-12-29T09:47:43;1.98;;;1.10;;
44842;SDS011;31884;52.538;13.820;2022-12-29T09:52:58;1.90;;;1.30;;
44842;SDS011;31884;52.538;13.820;2022-12-29T09:55:33;1.85;;;0.90;;
44842;SDS011;31884;52.538;13.820;2022-12-29T10:00:38;2.90;;;1.23;;
44842;SDS011;31884;52.538;13.820;2022-12-29T10:03:19;2.05;;;0.77;;
44842;SDS011;31884;52.538;13.820;2022-12-29T10:05:47;0.80;;;0.73;;
44842;SDS011;31884;52.538;13.820;2022-12-29T10:08:31;1.02;;;0.80;;
44842;SDS011;31884;52.538;13.820;2022-12-29T10:14:28;1.80;;;1.00;;
44842;SDS011;31884;52.538;13.820;2022-12-29T10:25:47;3.65;;;1.38;;
44842;SDS011;31884;52.538;13.820;2022-12-29T10:28:21;1.33;;;0.98;;
44842;SDS011;31884;52.538;13.820;2022-12-29T10:30:49;2.80;;;0.90;;
44842;SDS011;31884;52.538;13.820;2022-12-29T10:33:18;1.13;;;1.00;;
44842;SDS011;31884;52.538;13.820;2022-12-29T10:35:48;1.38;;;0.90;;
44842;SDS011;31884;52.538;13.820;2022-12-29T10:38:19;1.42;;;1.10;;
44842;SDS011;31884;52.538;13.820;2022-12-29T10:46:09;1.98;;;1.30;;
44842;SDS011;31884;52.538;13.820;2022-12-29T10:48:38;2.03;;;1.83;;
44842;SDS011;31884;52.538;13.820;2022-12-29T10:51:04;3.42;;;2.00;;
44842;SDS011;31884;52.538;13.820;2022-12-29T10:53:40;3.65;;;2.17;;
44842;SDS011;31884;52.538;13.820;2022-12-29T10:56:17;1.70;;;1.40;;
44842;SDS011;31884;52.538;13.820;2022-12-29T10:58:49;4.97;;;1.33;;
44842;SDS011;31884;52.538;13.820;2022-12-29T11:01:15;3.25;;;1.10;;
44842;SDS011;31884;52.538;13.820;2022-12-29T11:03:48;2.97;;;1.10;;
44842;SDS011;31884;52.538;13.820;2022-12-29T11:06:28;2.65;;;1.27;;
44842;SDS011;31884;52.538;13.820;2022-12-29T11:08:59;1.17;;;0.82;;
44842;SDS011;31884;52.538;13.820;2022-12-29T11:11:34;1.98;;;0.80;;
44842;SDS011;31884;52.538;13.820;2022-12-29T11:14:16;2.22;;;1.10;;
44842;SDS011;31884;52.538;13.820;2022-12-29T11:16:44;4.20;;;1.17;;
44842;SDS011;31884;52.538;13.820;2022-12-29T11:19:24;2.08;;;1.15;;
44842;SDS011;31884;52.538;13.820;2022-12-29T11:21:51;1.65;;;1.17;;
44842;SDS011;31884;52.538;13.820;2022-12-29T11:24:18;2.28;;;1.00;;
44842;SDS011;31884;52.538;13.820;2022-12-29T11:26:46;1.63;;;1.08;;
44842;SDS011;31884;52.538;13.820;2022-12-29T11:34:18;2.05;;;1.00;;
44842;SDS011;31884;52.538;13.820;2022-12-29T11:37:01;2.15;;;1.20;;
44842;SDS011;31884;52.538;13.820;2022-12-29T11:42:19;1.75;;;0.95;;
44842;SDS011;31884;52.538;13.820;2022-12-29T11:44:48;1.52;;;1.00;;
44842;SDS011;31884;52.538;13.820;2022-12-29T11:47:48;5.38;;;1.40;;
44842;SDS011;31884;52.538;13.820;2022-12-29T11:50:07;1.95;;;0.90;;
44842;SDS011;31884;52.538;13.820;2022-12-29T11:52:41;0.95;;;0.88;;
44842;SDS011;31884;52.538;13.820;2022-12-29T11:55:13;1.30;;;0.95;;
44842;SDS011;31884;52.538;13.820;2022-12-29T11:57:43;0.63;;;0.63;;
44842;SDS011;31884;52.538;13.820;2022-12-29T12:00:28;1.15;;;0.77;;
44842;SDS011;31884;52.538;13.820;2022-12-29T12:06:00;2.33;;;1.10;;
44842;SDS011;31884;52.538;13.820;2022-12-29T12:08:37;1.63;;;0.80;;
44842;SDS011;31884;52.538;13.820;2022-12-29T12:18:49;0.73;;;0.50;;
44842;SDS011;31884;52.538;13.820;2022-12-29T12:32:25;1.38;;;1.02;;
44842;SDS011;31884;52.538;13.820;2022-12-29T12:35:02;2.33;;;0.80;;
44842;SDS011;31884;52.538;13.820;2022-12-29T12:43:09;2.73;;;1.20;;
44842;SDS011;31884;52.538;13.820;2022-12-29T12:46:07;0.60;;;0.60;;
44842;SDS011;31884;52.538;13.820;2022-12-29T12:51:34;1.05;;;0.95;;
44842;SDS011;31884;52.538;13.820;2022-12-29T12:57:35;2.53;;;1.15;;
44842;SDS011;31884;52.538;13.820;2022-12-29T13:00:23;0.88;;;0.70;;
44842;SDS011;31884;52.538;13.820;2022-12-29T13:08:15;0.70;;;0.70;;
44842;SDS011;31884;52.538;13.820;2022-12-29T13:16:41;1.98;;;0.90;;
44842;SDS011;31884;52.538;13.820;2022-12-29T13:22:25;2.28;;;1.10;;
44842;SDS011;31884;52.538;13.820;2022-12-29T13:30:42;2.00;;;0.90;;
44842;SDS011;31884;52.538;13.820;2022-12-29T13:33:18;1.90;;;1.20;;
44842;SDS011;31884;52.538;13.820;2022-12-29T13:38:38;0.80;;;0.68;;
44842;SDS011;31884;52.538;13.820;2022-12-29T13:41:12;2.58;;;1.40;;
44842;SDS011;31884;52.538;13.820;2022-12-29T13:43:43;2.17;;;1.50;;
44842;SDS011;31884;52.538;13.820;2022-12-29T13:46:28;11.98;;;6.95;;
44842;SDS011;31884;52.538;13.820;2022-12-29T13:51:32;5.60;;;4.18;;
44842;SDS011;31884;52.538;13.820;2022-12-29T13:54:09;7.70;;;4.35;;
44842;SDS011;31884;52.538;13.820;2022-12-29T13:59:36;7.40;;;5.25;;
44842;SDS011;31884;52.538;13.820;2022-12-29T14:02:13;4.60;;;3.00;;
44842;SDS011;31884;52.538;13.820;2022-12-29T14:05:01;3.85;;;2.33;;
44842;SDS011;31884;52.538;13.820;2022-12-29T14:07:47;4.95;;;2.50;;
44842;SDS011;31884;52.538;13.820;2022-12-29T14:13:05;12.82;;;10.23;;
44842;SDS011;31884;52.538;13.820;2022-12-29T14:15:51;9.48;;;7.15;;
44842;SDS011;31884;52.538;13.820;2022-12-29T14:18:19;9.57;;;6.65;;
44842;SDS011;31884;52.538;13.820;2022-12-29T14:20:54;6.20;;;4.60;;
44842;SDS011;31884;52.538;13.820;2022-12-29T14:23:37;4.55;;;3.35;;
44842;SDS011;31884;52.538;13.820;2022-12-29T14:28:34;2.65;;;1.80;;
44842;SDS011;31884;52.538;13.820;2022-12-29T14:31:03;2.83;;;1.77;;
44842;SDS011;31884;52.538;13.820;2022-12-29T14:33:31;5.00;;;2.33;;
44842;SDS011;31884;52.538;13.820;2022-12-29T14:36:18;3.15;;;1.88;;
44842;SDS011;31884;52.538;13.820;2022-12-29T14:39:02;4.00;;;1.77;;
44842;SDS011;31884;52.538;13.820;2022-12-29T14:44:24;2.55;;;1.98;;
44842;SDS011;31884;52.538;13.820;2022-12-29T14:46:54;6.15;;;2.50;;
44842;SDS011;31884;52.538;13.820;2022-12-29T14:49:30;4.53;;;2.50;;
44842;SDS011;31884;52.538;13.820;2022-12-29T14:52:05;3.38;;;1.35;;
44842;SDS011;31884;52.538;13.820;2022-12-29T14:57:39;2.40;;;1.40;;
44842;SDS011;31884;52.538;13.820;2022-12-29T15:00:08;1.52;;;1.40;;
44842;SDS011;31884;52.538;13.820;2022-12-29T15:02:54;2.97;;;1.83;;
44842;SDS011;31884;52.538;13.820;2022-12-29T15:05:47;2.22;;;2.03;;
44842;SDS011;31884;52.538;13.820;2022-12-29T15:08:22;2.70;;;1.90;;
44842;SDS011;31884;52.538;13.820;2022-12-29T15:11:11;5.22;;;2.40;;
44842;SDS011;31884;52.538;13.820;2022-12-29T15:13:42;2.03;;;1.75;;
44842;SDS011;31884;52.538;13.820;2022-12-29T15:16:22;4.75;;;1.60;;
44842;SDS011;31884;52.538;13.820;2022-12-29T15:18:50;2.00;;;1.60;;
44842;SDS011;31884;52.538;13.820;2022-12-29T15:21:15;2.85;;;1.55;;
44842;SDS011;31884;52.538;13.820;2022-12-29T15:23:42;2.58;;;1.50;;
44842;SDS011;31884;52.538;13.820;2022-12-29T15:26:09;2.47;;;1.52;;
44842;SDS011;31884;52.538;13.820;2022-12-29T15:28:37;3.53;;;1.35;;
44842;SDS011;31884;52.538;13.820;2022-12-29T15:31:05;1.63;;;1.30;;
44842;SDS011;31884;52.538;13.820;2022-12-29T15:33:37;1.52;;;1.10;;
44842;SDS011;31884;52.538;13.820;2022-12-29T15:36:09;3.05;;;1.60;;
44842;SDS011;31884;52.538;13.820;2022-12-29T15:38:37;3.08;;;1.40;;
44842;SDS011;31884;52.538;13.820;2022-12-29T15:41:50;5.65;;;3.80;;
44842;SDS011;31884;52.538;13.820;2022-12-29T15:44:24;3.80;;;3.22;;
44842;SDS011;31884;52.538;13.820;2022-12-29T15:46:54;2.85;;;2.25;;
44842;SDS011;31884;52.538;13.820;2022-12-29T15:49:20;7.90;;;4.90;;
44842;SDS011;31884;52.538;13.820;2022-12-29T15:51:45;6.22;;;4.38;;
44842;SDS011;31884;52.538;13.820;2022-12-29T15:54:15;8.27;;;4.68;;
44842;SDS011;31884;52.538;13.820;2022-12-29T15:56:43;7.45;;;4.93;;
44842;SDS011;31884;52.538;13.820;2022-12-29T16:02:10;5.60;;;3.10;;
44842;SDS011;31884;52.538;13.820;2022-12-29T16:04:36;3.05;;;2.75;;
44842;SDS011;31884;52.538;13.820;2022-12-29T16:07:03;3.47;;;2.45;;
44842;SDS011;31884;52.538;13.820;2022-12-29T16:09:32;2.95;;;2.40;;
44842;SDS011;31884;52.538;13.820;2022-12-29T16:12:13;2.28;;;2.00;;
44842;SDS011;31884;52.538;13.820;2022-12-29T16:14:46;2.35;;;2.10;;
44842;SDS011;31884;52.538;13.820;2022-12-29T16:17:15;2.15;;;1.58;;
44842;SDS011;31884;52.538;13.820;2022-12-29T16:19:49;3.78;;;1.92;;
44842;SDS011;31884;52.538;13.820;2022-12-29T16:22:22;2.83;;;1.60;;
44842;SDS011;31884;52.538;13.820;2022-12-29T16:24:57;4.22;;;2.00;;
44842;SDS011;31884;52.538;13.820;2022-12-29T16:27:28;2.53;;;2.10;;
44842;SDS011;31884;52.538;13.820;2022-12-29T16:29:58;3.08;;;2.05;;
44842;SDS011;31884;52.538;13.820;2022-12-29T16:32:31;4.95;;;2.65;;
44842;SDS011;31884;52.538;13.820;2022-12-29T16:35:16;4.25;;;2.33;;
44842;SDS011;31884;52.538;13.820;2022-12-29T16:37:43;5.68;;;3.60;;
44842;SDS011;31884;52.538;13.820;2022-12-29T16:43:02;4.57;;;4.18;;
44842;SDS011;31884;52.538;13.820;2022-12-29T16:46:14;7.70;;;5.32;;
44842;SDS011;31884;52.538;13.820;2022-12-29T16:48:27;7.85;;;6.40;;
44842;SDS011;31884;52.538;13.820;2022-12-29T16:51:00;15.77;;;9.63;;
44842;SDS011;31884;52.538;13.820;2022-12-29T16:53:33;6.68;;;4.35;;
44842;SDS011;31884;52.538;13.820;2022-12-29T16:56:03;4.10;;;3.33;;
44842;SDS011;31884;52.538;13.820;2022-12-29T16:58:38;4.80;;;2.67;;
44842;SDS011;31884;52.538;13.820;2022-12-29T17:01:04;3.72;;;2.20;;
44842;SDS011;31884;52.538;13.820;2022-12-29T17:03:39;4.97;;;3.13;;
44842;SDS011;31884;52.538;13.820;2022-12-29T17:06:14;7.03;;;2.75;;
44842;SDS011;31884;52.538;13.820;2022-12-29T17:08:44;4.13;;;2.80;;
44842;SDS011;31884;52.538;13.820;2022-12-29T17:11:29;5.47;;;2.00;;